sensor_id;sensor_type;location;lat;lon;timestamp;P1;durP1;ratioP1;P2;durP2;ratioP2
75620;SDS011;64574;48.506;-2.750;2024-01-15T00:01:36;24.33;;;11.52;;
75620;SDS011;64574;48.506;-2.750;2024-01-15T00:04:02;25.35;;;12.35;;
75620;SDS011;64574;48.506;-2.750;2024-01-15T00:06:28;26.55;;;13.15;;
75620;SDS011;64574;48.506;-2.750;2024-01-15T00:08:53;28.73;;;13.48;;
75620;SDS011;64574;48.506;-2.750;2024-01-15T00:11:19;24.30;;;12.27;;
75620;SDS011;64574;48.506;-2.750;2024-01-15T00:13:44;26.30;;;12.25;;
75620;SDS011;64574;48.506;-2.750;2024-01-15T00:16:10;26.08;;;12.38;;
75620;SDS011;64574;48.506;-2.750;2024-01-15T00:18:37;28.25;;;12.57;;
75620;SDS011;64574;48.506;-2.750;2024-01-15T00:21:02;27.10;;;12.60;;
75620;SDS011;64574;48.506;-2.750;2024-01-15T00:23:28;25.73;;;11.95;;
75620;SDS011;64574;48.506;-2.750;2024-01-15T00:25:54;24.63;;;11.75;;
75620;SDS011;64574;48.506;-2.750;2024-01-15T00:28:20;28.67;;;12.93;;
75620;SDS011;64574;48.506;-2.750;2024-01-15T00:30:46;25.63;;;12.55;;
75620;SDS011;64574;48.506;-2.750;2024-01-15T00:33:11;26.60;;;11.88;;
75620;SDS011;64574;48.506;-2.750;2024-01-15T00:35:40;23.85;;;12.00;;
75620;SDS011;64574;48.506;-2.750;2024-01-15T00:38:06;27.38;;;12.55;;
75620;SDS011;64574;48.506;-2.750;2024-01-15T00:40:31;24.85;;;12.23;;
75620;SDS011;64574;48.506;-2.750;2024-01-15T00:42:57;23.73;;;12.85;;
75620;SDS011;64574;48.506;-2.750;2024-01-15T00:45:22;26.05;;;12.52;;
75620;SDS011;64574;48.506;-2.750;2024-01-15T00:47:48;27.13;;;12.75;;
75620;SDS011;64574;48.506;-2.750;2024-01-15T00:50:14;25.27;;;12.60;;
75620;SDS011;64574;48.506;-2.750;2024-01-15T00:52:40;27.75;;;13.35;;
75620;SDS011;64574;48.506;-2.750;2024-01-15T00:55:05;23.95;;;12.25;;
75620;SDS011;64574;48.506;-2.750;2024-01-15T00:57:31;24.95;;;12.60;;
75620;SDS011;64574;48.506;-2.750;2024-01-15T00:59:58;24.50;;;11.60;;
75620;SDS011;64574;48.506;-2.750;2024-01-15T01:02:23;27.45;;;13.88;;
75620;SDS011;64574;48.506;-2.750;2024-01-15T01:04:49;25.42;;;11.98;;
75620;SDS011;64574;48.506;-2.750;2024-01-15T01:07:15;24.50;;;12.32;;
75620;SDS011;64574;48.506;-2.750;2024-01-15T01:09:40;25.92;;;12.73;;
75620;SDS011;64574;48.506;-2.750;2024-01-15T01:12:06;23.20;;;11.63;;
75620;SDS011;64574;48.506;-2.750;2024-01-15T01:14:32;23.50;;;12.38;;
75620;SDS011;64574;48.506;-2.750;2024-01-15T01:16:57;23.25;;;11.63;;
75620;SDS011;64574;48.506;-2.750;2024-01-15T01:19:23;24.25;;;13.00;;
75620;SDS011;64574;48.506;-2.750;2024-01-15T01:21:50;24.98;;;11.82;;
75620;SDS011;64574;48.506;-2.750;2024-01-15T01:24:16;23.42;;;11.45;;
75620;SDS011;64574;48.506;-2.750;2024-01-15T01:26:42;24.88;;;12.15;;
75620;SDS011;64574;48.506;-2.750;2024-01-15T01:29:07;26.73;;;11.73;;
75620;SDS011;64574;48.506;-2.750;2024-01-15T01:31:33;23.58;;;12.38;;
75620;SDS011;64574;48.506;-2.750;2024-01-15T01:33:58;24.02;;;12.18;;
75620;SDS011;64574;48.506;-2.750;2024-01-15T01:36:24;22.38;;;11.45;;
75620;SDS011;64574;48.506;-2.750;2024-01-15T01:38:49;22.13;;;11.02;;
75620;SDS011;64574;48.506;-2.750;2024-01-15T01:41:15;21.73;;;10.88;;
75620;SDS011;64574;48.506;-2.750;2024-01-15T01:43:41;21.50;;;11.07;;
75620;SDS011;64574;48.506;-2.750;2024-01-15T01:46:06;21.73;;;11.43;;
75620;SDS011;64574;48.506;-2.750;2024-01-15T01:48:32;22.77;;;11.57;;
75620;SDS011;64574;48.506;-2.750;2024-01-15T01:51:00;20.48;;;11.05;;
75620;SDS011;64574;48.506;-2.750;2024-01-15T01:53:27;20.45;;;10.93;;
75620;SDS011;64574;48.506;-2.750;2024-01-15T01:55:56;19.67;;;10.02;;
75620;SDS011;64574;48.506;-2.750;2024-01-15T01:58:22;22.25;;;10.50;;
75620;SDS011;64574;48.506;-2.750;2024-01-15T02:00:48;19.48;;;9.73;;
75620;SDS011;64574;48.506;-2.750;2024-01-15T02:03:14;22.20;;;10.40;;
75620;SDS011;64574;48.506;-2.750;2024-01-15T02:05:40;18.15;;;9.68;;
75620;SDS011;64574;48.506;-2.750;2024-01-15T02:08:09;18.77;;;10.50;;
75620;SDS011;64574;48.506;-2.750;2024-01-15T02:10:35;21.70;;;10.27;;
75620;SDS011;64574;48.506;-2.750;2024-01-15T02:13:01;18.38;;;9.88;;
75620;SDS011;64574;48.506;-2.750;2024-01-15T02:15:27;20.48;;;10.60;;
75620;SDS011;64574;48.506;-2.750;2024-01-15T02:18:05;18.40;;;10.25;;
75620;SDS011;64574;48.506;-2.750;2024-01-15T02:20:34;19.13;;;9.50;;
75620;SDS011;64574;48.506;-2.750;2024-01-15T02:23:13;16.42;;;8.80;;
75620;SDS011;64574;48.506;-2.750;2024-01-15T02:25:43;20.63;;;10.98;;
75620;SDS011;64574;48.506;-2.750;2024-01-15T02:28:16;19.63;;;9.63;;
75620;SDS011;64574;48.506;-2.750;2024-01-15T02:30:43;19.27;;;9.82;;
75620;SDS011;64574;48.506;-2.750;2024-01-15T02:33:09;18.42;;;9.15;;
75620;SDS011;64574;48.506;-2.750;2024-01-15T02:35:36;16.70;;;9.05;;
75620;SDS011;64574;48.506;-2.750;2024-01-15T02:38:02;18.70;;;10.05;;
75620;SDS011;64574;48.506;-2.750;2024-01-15T02:40:29;17.80;;;9.80;;
75620;SDS011;64574;48.506;-2.750;2024-01-15T02:42:54;15.70;;;8.45;;
75620;SDS011;64574;48.506;-2.750;2024-01-15T02:45:21;18.00;;;9.32;;
75620;SDS011;64574;48.506;-2.750;2024-01-15T02:47:47;18.17;;;9.80;;
75620;SDS011;64574;48.506;-2.750;2024-01-15T02:50:13;16.27;;;9.02;;
75620;SDS011;64574;48.506;-2.750;2024-01-15T02:52:38;18.45;;;9.40;;
75620;SDS011;64574;48.506;-2.750;2024-01-15T02:55:04;17.67;;;9.30;;
75620;SDS011;64574;48.506;-2.750;2024-01-15T02:57:30;19.30;;;8.98;;
75620;SDS011;64574;48.506;-2.750;2024-01-15T02:59:56;14.45;;;8.23;;
75620;SDS011;64574;48.506;-2.750;2024-01-15T03:02:22;16.33;;;8.40;;
75620;SDS011;64574;48.506;-2.750;2024-01-15T03:04:47;17.48;;;9.00;;
75620;SDS011;64574;48.506;-2.750;2024-01-15T03:07:13;17.15;;;8.65;;
75620;SDS011;64574;48.506;-2.750;2024-01-15T03:09:39;16.48;;;8.30;;
75620;SDS011;64574;48.506;-2.750;2024-01-15T03:12:04;15.45;;;8.25;;
75620;SDS011;64574;48.506;-2.750;2024-01-15T03:14:30;15.88;;;9.10;;
75620;SDS011;64574;48.506;-2.750;2024-01-15T03:16:56;17.33;;;8.90;;
75620;SDS011;64574;48.506;-2.750;2024-01-15T03:19:22;15.23;;;7.75;;
75620;SDS011;64574;48.506;-2.750;2024-01-15T03:21:47;14.13;;;8.02;;
75620;SDS011;64574;48.506;-2.750;2024-01-15T03:24:13;14.95;;;7.72;;
75620;SDS011;64574;48.506;-2.750;2024-01-15T03:26:39;13.90;;;8.00;;
75620;SDS011;64574;48.506;-2.750;2024-01-15T03:29:05;16.40;;;8.55;;
75620;SDS011;64574;48.506;-2.750;2024-01-15T03:31:31;14.85;;;7.90;;
75620;SDS011;64574;48.506;-2.750;2024-01-15T03:33:56;15.35;;;7.68;;
75620;SDS011;64574;48.506;-2.750;2024-01-15T03:36:22;16.50;;;8.57;;
75620;SDS011;64574;48.506;-2.750;2024-01-15T03:38:47;14.90;;;7.97;;
75620;SDS011;64574;48.506;-2.750;2024-01-15T03:41:13;13.93;;;7.82;;
75620;SDS011;64574;48.506;-2.750;2024-01-15T03:43:39;14.98;;;7.82;;
75620;SDS011;64574;48.506;-2.750;2024-01-15T03:46:05;14.50;;;8.18;;
75620;SDS011;64574;48.506;-2.750;2024-01-15T03:48:30;14.57;;;7.47;;
75620;SDS011;64574;48.506;-2.750;2024-01-15T03:50:56;15.52;;;8.75;;
75620;SDS011;64574;48.506;-2.750;2024-01-15T03:53:22;16.65;;;8.38;;
75620;SDS011;64574;48.506;-2.750;2024-01-15T03:55:48;14.40;;;8.23;;
75620;SDS011;64574;48.506;-2.750;2024-01-15T03:58:14;13.55;;;7.80;;
75620;SDS011;64574;48.506;-2.750;2024-01-15T04:00:40;14.07;;;7.65;;
75620;SDS011;64574;48.506;-2.750;2024-01-15T04:03:06;14.35;;;7.60;;
75620;SDS011;64574;48.506;-2.750;2024-01-15T04:05:31;13.68;;;7.78;;
75620;SDS011;64574;48.506;-2.750;2024-01-15T04:07:57;13.75;;;7.35;;
75620;SDS011;64574;48.506;-2.750;2024-01-15T04:10:23;15.27;;;7.85;;
75620;SDS011;64574;48.506;-2.750;2024-01-15T04:12:49;13.13;;;8.27;;
75620;SDS011;64574;48.506;-2.750;2024-01-15T04:15:14;15.55;;;7.43;;
75620;SDS011;64574;48.506;-2.750;2024-01-15T04:17:40;12.73;;;7.68;;
75620;SDS011;64574;48.506;-2.750;2024-01-15T04:20:06;14.90;;;7.60;;
75620;SDS011;64574;48.506;-2.750;2024-01-15T04:22:33;13.90;;;7.85;;
75620;SDS011;64574;48.506;-2.750;2024-01-15T04:25:00;13.88;;;7.10;;
75620;SDS011;64574;48.506;-2.750;2024-01-15T04:27:25;15.25;;;7.88;;
75620;SDS011;64574;48.506;-2.750;2024-01-15T04:29:51;15.02;;;7.68;;
75620;SDS011;64574;48.506;-2.750;2024-01-15T04:32:17;16.25;;;8.05;;
75620;SDS011;64574;48.506;-2.750;2024-01-15T04:34:42;14.93;;;7.57;;
75620;SDS011;64574;48.506;-2.750;2024-01-15T04:37:08;13.32;;;7.82;;
75620;SDS011;64574;48.506;-2.750;2024-01-15T04:39:34;15.10;;;8.15;;
75620;SDS011;64574;48.506;-2.750;2024-01-15T04:41:59;15.73;;;8.13;;
75620;SDS011;64574;48.506;-2.750;2024-01-15T04:44:25;14.38;;;7.75;;
75620;SDS011;64574;48.506;-2.750;2024-01-15T04:46:50;14.80;;;7.32;;
75620;SDS011;64574;48.506;-2.750;2024-01-15T04:49:16;14.07;;;7.53;;
75620;SDS011;64574;48.506;-2.750;2024-01-15T04:51:42;14.63;;;8.00;;
75620;SDS011;64574;48.506;-2.750;2024-01-15T04:54:07;13.77;;;7.70;;
75620;SDS011;64574;48.506;-2.750;2024-01-15T04:56:33;14.50;;;7.88;;
75620;SDS011;64574;48.506;-2.750;2024-01-15T04:58:58;15.63;;;8.13;;
75620;SDS011;64574;48.506;-2.750;2024-01-15T05:01:24;14.55;;;7.47;;
75620;SDS011;64574;48.506;-2.750;2024-01-15T05:03:49;12.18;;;7.07;;
75620;SDS011;64574;48.506;-2.750;2024-01-15T05:06:15;14.32;;;7.53;;
75620;SDS011;64574;48.506;-2.750;2024-01-15T05:08:41;15.73;;;7.85;;
75620;SDS011;64574;48.506;-2.750;2024-01-15T05:11:06;16.67;;;8.10;;
75620;SDS011;64574;48.506;-2.750;2024-01-15T05:13:32;13.77;;;7.15;;
75620;SDS011;64574;48.506;-2.750;2024-01-15T05:15:58;12.48;;;7.55;;
75620;SDS011;64574;48.506;-2.750;2024-01-15T05:18:24;16.55;;;7.97;;
75620;SDS011;64574;48.506;-2.750;2024-01-15T05:20:49;13.43;;;7.13;;
75620;SDS011;64574;48.506;-2.750;2024-01-15T05:23:15;12.80;;;7.55;;
75620;SDS011;64574;48.506;-2.750;2024-01-15T05:25:40;14.23;;;6.85;;
75620;SDS011;64574;48.506;-2.750;2024-01-15T05:28:07;12.73;;;7.95;;
75620;SDS011;64574;48.506;-2.750;2024-01-15T05:30:33;15.10;;;8.35;;
75620;SDS011;64574;48.506;-2.750;2024-01-15T05:32:58;15.13;;;7.45;;
75620;SDS011;64574;48.506;-2.750;2024-01-15T05:35:25;16.52;;;8.23;;
75620;SDS011;64574;48.506;-2.750;2024-01-15T05:37:51;14.10;;;7.10;;
75620;SDS011;64574;48.506;-2.750;2024-01-15T05:40:16;16.13;;;7.63;;
75620;SDS011;64574;48.506;-2.750;2024-01-15T05:42:42;15.00;;;7.85;;
75620;SDS011;64574;48.506;-2.750;2024-01-15T05:45:08;16.42;;;7.93;;
75620;SDS011;64574;48.506;-2.750;2024-01-15T05:47:34;14.65;;;6.72;;
75620;SDS011;64574;48.506;-2.750;2024-01-15T05:50:00;13.75;;;5.93;;
75620;SDS011;64574;48.506;-2.750;2024-01-15T05:52:26;13.05;;;4.95;;
75620;SDS011;64574;48.506;-2.750;2024-01-15T05:54:52;7.18;;;3.80;;
75620;SDS011;64574;48.506;-2.750;2024-01-15T05:57:18;7.70;;;3.58;;
75620;SDS011;64574;48.506;-2.750;2024-01-15T05:59:44;8.68;;;3.20;;
75620;SDS011;64574;48.506;-2.750;2024-01-15T06:02:10;7.68;;;3.25;;
75620;SDS011;64574;48.506;-2.750;2024-01-15T06:04:36;6.03;;;3.13;;
75620;SDS011;64574;48.506;-2.750;2024-01-15T06:07:02;6.65;;;2.65;;
75620;SDS011;64574;48.506;-2.750;2024-01-15T06:09:27;6.93;;;2.38;;
75620;SDS011;64574;48.506;-2.750;2024-01-15T06:11:53;3.05;;;1.55;;
75620;SDS011;64574;48.506;-2.750;2024-01-15T06:14:19;3.58;;;1.33;;
75620;SDS011;64574;48.506;-2.750;2024-01-15T06:16:45;5.70;;;1.60;;
75620;SDS011;64574;48.506;-2.750;2024-01-15T06:19:11;2.70;;;0.55;;
75620;SDS011;64574;48.506;-2.750;2024-01-15T06:21:36;2.50;;;0.50;;
75620;SDS011;64574;48.506;-2.750;2024-01-15T06:24:02;4.07;;;0.70;;
75620;SDS011;64574;48.506;-2.750;2024-01-15T06:26:28;5.57;;;1.20;;
75620;SDS011;64574;48.506;-2.750;2024-01-15T06:28:53;2.70;;;0.60;;
75620;SDS011;64574;48.506;-2.750;2024-01-15T06:31:19;2.25;;;0.40;;
75620;SDS011;64574;48.506;-2.750;2024-01-15T06:33:45;3.30;;;0.35;;
75620;SDS011;64574;48.506;-2.750;2024-01-15T06:36:13;1.27;;;0.35;;
75620;SDS011;64574;48.506;-2.750;2024-01-15T06:38:39;4.00;;;0.57;;
75620;SDS011;64574;48.506;-2.750;2024-01-15T06:41:04;11.63;;;0.75;;
75620;SDS011;64574;48.506;-2.750;2024-01-15T06:43:30;4.55;;;0.68;;
75620;SDS011;64574;48.506;-2.750;2024-01-15T06:45:56;3.13;;;0.60;;
75620;SDS011;64574;48.506;-2.750;2024-01-15T06:48:21;1.77;;;0.35;;
75620;SDS011;64574;48.506;-2.750;2024-01-15T06:50:47;3.72;;;0.50;;
75620;SDS011;64574;48.506;-2.750;2024-01-15T06:53:13;2.05;;;0.43;;
75620;SDS011;64574;48.506;-2.750;2024-01-15T06:55:38;3.53;;;0.60;;
75620;SDS011;64574;48.506;-2.750;2024-01-15T06:58:04;3.58;;;0.55;;
75620;SDS011;64574;48.506;-2.750;2024-01-15T07:00:30;1.92;;;0.55;;
75620;SDS011;64574;48.506;-2.750;2024-01-15T07:02:56;3.10;;;0.73;;
75620;SDS011;64574;48.506;-2.750;2024-01-15T07:05:21;1.42;;;0.50;;
75620;SDS011;64574;48.506;-2.750;2024-01-15T07:07:48;1.38;;;0.63;;
75620;SDS011;64574;48.506;-2.750;2024-01-15T07:10:14;4.80;;;0.90;;
75620;SDS011;64574;48.506;-2.750;2024-01-15T07:12:43;2.13;;;0.63;;
75620;SDS011;64574;48.506;-2.750;2024-01-15T07:15:09;2.30;;;0.50;;
75620;SDS011;64574;48.506;-2.750;2024-01-15T07:17:35;0.55;;;0.30;;
75620;SDS011;64574;48.506;-2.750;2024-01-15T07:20:05;1.98;;;0.50;;
75620;SDS011;64574;48.506;-2.750;2024-01-15T07:22:35;2.25;;;0.50;;
75620;SDS011;64574;48.506;-2.750;2024-01-15T07:25:01;2.83;;;0.57;;
75620;SDS011;64574;48.506;-2.750;2024-01-15T07:27:27;1.85;;;0.40;;
75620;SDS011;64574;48.506;-2.750;2024-01-15T07:29:52;3.03;;;0.73;;
75620;SDS011;64574;48.506;-2.750;2024-01-15T07:32:18;1.95;;;0.47;;
75620;SDS011;64574;48.506;-2.750;2024-01-15T07:34:43;4.00;;;0.80;;
75620;SDS011;64574;48.506;-2.750;2024-01-15T07:37:09;3.80;;;0.70;;
75620;SDS011;64574;48.506;-2.750;2024-01-15T07:39:35;1.63;;;0.50;;
75620;SDS011;64574;48.506;-2.750;2024-01-15T07:42:00;1.10;;;0.65;;
75620;SDS011;64574;48.506;-2.750;2024-01-15T07:44:26;4.32;;;0.60;;
75620;SDS011;64574;48.506;-2.750;2024-01-15T07:46:52;2.65;;;0.45;;
75620;SDS011;64574;48.506;-2.750;2024-01-15T07:49:17;1.30;;;0.73;;
75620;SDS011;64574;48.506;-2.750;2024-01-15T07:51:43;1.27;;;0.52;;
75620;SDS011;64574;48.506;-2.750;2024-01-15T07:54:09;3.80;;;0.70;;
75620;SDS011;64574;48.506;-2.750;2024-01-15T07:59:22;2.15;;;0.60;;
75620;SDS011;64574;48.506;-2.750;2024-01-15T08:01:48;3.63;;;0.90;;
75620;SDS011;64574;48.506;-2.750;2024-01-15T08:04:14;2.63;;;1.00;;
75620;SDS011;64574;48.506;-2.750;2024-01-15T08:06:39;2.00;;;0.50;;
75620;SDS011;64574;48.506;-2.750;2024-01-15T08:09:05;1.80;;;0.70;;
75620;SDS011;64574;48.506;-2.750;2024-01-15T08:11:31;0.77;;;0.40;;
75620;SDS011;64574;48.506;-2.750;2024-01-15T08:13:57;1.95;;;0.57;;
75620;SDS011;64574;48.506;-2.750;2024-01-15T08:16:22;1.73;;;0.57;;
75620;SDS011;64574;48.506;-2.750;2024-01-15T08:18:50;0.55;;;0.35;;
75620;SDS011;64574;48.506;-2.750;2024-01-15T08:21:15;2.97;;;0.68;;
75620;SDS011;64574;48.506;-2.750;2024-01-15T08:23:41;2.08;;;0.50;;
75620;SDS011;64574;48.506;-2.750;2024-01-15T08:26:07;2.60;;;0.60;;
75620;SDS011;64574;48.506;-2.750;2024-01-15T08:28:33;2.67;;;0.60;;
75620;SDS011;64574;48.506;-2.750;2024-01-15T08:30:59;2.25;;;0.50;;
75620;SDS011;64574;48.506;-2.750;2024-01-15T08:33:25;4.18;;;0.40;;
75620;SDS011;64574;48.506;-2.750;2024-01-15T08:35:50;1.10;;;0.30;;
75620;SDS011;64574;48.506;-2.750;2024-01-15T08:38:16;2.28;;;0.50;;
75620;SDS011;64574;48.506;-2.750;2024-01-15T08:40:42;1.67;;;0.40;;
75620;SDS011;64574;48.506;-2.750;2024-01-15T08:43:07;2.03;;;0.55;;
75620;SDS011;64574;48.506;-2.750;2024-01-15T08:45:33;3.35;;;0.60;;
75620;SDS011;64574;48.506;-2.750;2024-01-15T08:47:58;0.82;;;0.45;;
75620;SDS011;64574;48.506;-2.750;2024-01-15T08:50:24;1.75;;;0.30;;
75620;SDS011;64574;48.506;-2.750;2024-01-15T08:52:50;2.83;;;0.60;;
75620;SDS011;64574;48.506;-2.750;2024-01-15T08:55:16;1.58;;;0.40;;
75620;SDS011;64574;48.506;-2.750;2024-01-15T08:57:41;1.80;;;0.50;;
75620;SDS011;64574;48.506;-2.750;2024-01-15T09:00:08;1.20;;;0.45;;
75620;SDS011;64574;48.506;-2.750;2024-01-15T09:02:34;5.13;;;0.45;;
75620;SDS011;64574;48.506;-2.750;2024-01-15T09:05:01;1.02;;;0.50;;
75620;SDS011;64574;48.506;-2.750;2024-01-15T09:07:27;0.50;;;0.30;;
75620;SDS011;64574;48.506;-2.750;2024-01-15T09:09:53;1.88;;;0.25;;
75620;SDS011;64574;48.506;-2.750;2024-01-15T09:12:18;2.85;;;0.50;;
75620;SDS011;64574;48.506;-2.750;2024-01-15T09:14:46;1.63;;;0.60;;
75620;SDS011;64574;48.506;-2.750;2024-01-15T09:17:12;1.25;;;0.40;;
75620;SDS011;64574;48.506;-2.750;2024-01-15T09:19:38;2.47;;;0.50;;
75620;SDS011;64574;48.506;-2.750;2024-01-15T09:22:07;2.22;;;0.30;;
75620;SDS011;64574;48.506;-2.750;2024-01-15T09:24:32;1.85;;;0.45;;
75620;SDS011;64574;48.506;-2.750;2024-01-15T09:26:58;2.08;;;0.70;;
75620;SDS011;64574;48.506;-2.750;2024-01-15T09:29:23;1.70;;;0.47;;
75620;SDS011;64574;48.506;-2.750;2024-01-15T09:31:49;2.28;;;0.60;;
75620;SDS011;64574;48.506;-2.750;2024-01-15T09:34:15;2.00;;;0.60;;
75620;SDS011;64574;48.506;-2.750;2024-01-15T09:36:41;3.03;;;0.60;;
75620;SDS011;64574;48.506;-2.750;2024-01-15T09:39:08;3.72;;;0.57;;
75620;SDS011;64574;48.506;-2.750;2024-01-15T09:41:37;0.95;;;0.40;;
75620;SDS011;64574;48.506;-2.750;2024-01-15T09:44:03;2.80;;;0.60;;
75620;SDS011;64574;48.506;-2.750;2024-01-15T09:46:30;3.17;;;0.60;;
75620;SDS011;64574;48.506;-2.750;2024-01-15T09:48:57;2.38;;;0.60;;
75620;SDS011;64574;48.506;-2.750;2024-01-15T09:51:24;1.30;;;0.43;;
75620;SDS011;64574;48.506;-2.750;2024-01-15T09:53:50;1.73;;;0.40;;
75620;SDS011;64574;48.506;-2.750;2024-01-15T09:56:16;1.73;;;0.45;;
75620;SDS011;64574;48.506;-2.750;2024-01-15T09:58:42;1.08;;;0.40;;
75620;SDS011;64574;48.506;-2.750;2024-01-15T10:01:09;1.48;;;0.73;;
75620;SDS011;64574;48.506;-2.750;2024-01-15T10:03:36;1.10;;;0.30;;
75620;SDS011;64574;48.506;-2.750;2024-01-15T10:06:03;2.08;;;0.50;;
75620;SDS011;64574;48.506;-2.750;2024-01-15T10:08:29;2.67;;;0.95;;
75620;SDS011;64574;48.506;-2.750;2024-01-15T10:10:55;1.80;;;0.60;;
75620;SDS011;64574;48.506;-2.750;2024-01-15T10:13:20;2.47;;;0.63;;
75620;SDS011;64574;48.506;-2.750;2024-01-15T10:15:47;3.00;;;0.70;;
75620;SDS011;64574;48.506;-2.750;2024-01-15T10:18:12;3.33;;;0.60;;
75620;SDS011;64574;48.506;-2.750;2024-01-15T10:20:39;2.45;;;0.50;;
75620;SDS011;64574;48.506;-2.750;2024-01-15T10:23:05;1.35;;;0.50;;
75620;SDS011;64574;48.506;-2.750;2024-01-15T10:25:30;1.55;;;0.40;;
75620;SDS011;64574;48.506;-2.750;2024-01-15T10:28:00;1.52;;;0.40;;
75620;SDS011;64574;48.506;-2.750;2024-01-15T10:30:26;2.45;;;0.50;;
75620;SDS011;64574;48.506;-2.750;2024-01-15T10:32:58;1.40;;;0.70;;
75620;SDS011;64574;48.506;-2.750;2024-01-15T10:35:26;4.20;;;0.88;;
75620;SDS011;64574;48.506;-2.750;2024-01-15T10:37:56;2.20;;;0.40;;
75620;SDS011;64574;48.506;-2.750;2024-01-15T10:40:23;2.08;;;0.45;;
75620;SDS011;64574;48.506;-2.750;2024-01-15T10:42:48;1.05;;;0.45;;
75620;SDS011;64574;48.506;-2.750;2024-01-15T10:45:14;0.65;;;0.30;;
75620;SDS011;64574;48.506;-2.750;2024-01-15T10:47:40;1.73;;;0.60;;
75620;SDS011;64574;48.506;-2.750;2024-01-15T10:50:06;1.30;;;0.50;;
75620;SDS011;64574;48.506;-2.750;2024-01-15T10:52:37;1.95;;;0.60;;
75620;SDS011;64574;48.506;-2.750;2024-01-15T10:55:06;1.48;;;0.35;;
75620;SDS011;64574;48.506;-2.750;2024-01-15T10:57:34;1.30;;;0.70;;
75620;SDS011;64574;48.506;-2.750;2024-01-15T11:00:03;2.38;;;0.35;;
75620;SDS011;64574;48.506;-2.750;2024-01-15T11:02:34;1.63;;;0.40;;
75620;SDS011;64574;48.506;-2.750;2024-01-15T11:05:01;1.48;;;0.93;;
75620;SDS011;64574;48.506;-2.750;2024-01-15T11:07:27;1.70;;;0.50;;
75620;SDS011;64574;48.506;-2.750;2024-01-15T11:09:55;2.13;;;0.43;;
75620;SDS011;64574;48.506;-2.750;2024-01-15T11:12:23;1.58;;;0.50;;
75620;SDS011;64574;48.506;-2.750;2024-01-15T11:14:49;1.48;;;0.40;;
75620;SDS011;64574;48.506;-2.750;2024-01-15T11:17:16;2.55;;;0.40;;
75620;SDS011;64574;48.506;-2.750;2024-01-15T11:22:09;0.70;;;0.40;;
75620;SDS011;64574;48.506;-2.750;2024-01-15T11:24:37;3.08;;;0.43;;
75620;SDS011;64574;48.506;-2.750;2024-01-15T11:27:04;3.97;;;0.63;;
75620;SDS011;64574;48.506;-2.750;2024-01-15T11:29:32;2.17;;;0.50;;
75620;SDS011;64574;48.506;-2.750;2024-01-15T11:32:03;2.33;;;0.60;;
75620;SDS011;64574;48.506;-2.750;2024-01-15T11:37:22;2.53;;;0.55;;
75620;SDS011;64574;48.506;-2.750;2024-01-15T11:39:50;4.07;;;1.90;;
75620;SDS011;64574;48.506;-2.750;2024-01-15T11:42:17;2.58;;;0.60;;
75620;SDS011;64574;48.506;-2.750;2024-01-15T11:44:44;0.95;;;0.40;;
75620;SDS011;64574;48.506;-2.750;2024-01-15T11:47:11;2.80;;;0.55;;
75620;SDS011;64574;48.506;-2.750;2024-01-15T11:52:19;3.40;;;0.65;;
75620;SDS011;64574;48.506;-2.750;2024-01-15T11:58:03;0.98;;;0.30;;
75620;SDS011;64574;48.506;-2.750;2024-01-15T12:00:34;1.10;;;0.35;;
75620;SDS011;64574;48.506;-2.750;2024-01-15T12:03:12;0.68;;;0.43;;
75620;SDS011;64574;48.506;-2.750;2024-01-15T12:05:38;5.32;;;0.40;;
75620;SDS011;64574;48.506;-2.750;2024-01-15T12:08:04;0.73;;;0.30;;
75620;SDS011;64574;48.506;-2.750;2024-01-15T12:10:39;0.90;;;0.40;;
75620;SDS011;64574;48.506;-2.750;2024-01-15T12:15:38;2.00;;;0.70;;
75620;SDS011;64574;48.506;-2.750;2024-01-15T12:18:06;1.45;;;0.73;;
75620;SDS011;64574;48.506;-2.750;2024-01-15T12:20:33;1.58;;;0.38;;
75620;SDS011;64574;48.506;-2.750;2024-01-15T12:22:59;0.93;;;0.40;;
75620;SDS011;64574;48.506;-2.750;2024-01-15T12:25:25;3.17;;;0.63;;
75620;SDS011;64574;48.506;-2.750;2024-01-15T12:27:52;1.85;;;0.63;;
75620;SDS011;64574;48.506;-2.750;2024-01-15T12:30:19;0.80;;;0.30;;
75620;SDS011;64574;48.506;-2.750;2024-01-15T12:32:45;3.00;;;0.50;;
75620;SDS011;64574;48.506;-2.750;2024-01-15T12:35:12;1.60;;;0.40;;
75620;SDS011;64574;48.506;-2.750;2024-01-15T12:37:41;0.90;;;0.30;;
75620;SDS011;64574;48.506;-2.750;2024-01-15T12:40:08;0.80;;;0.38;;
75620;SDS011;64574;48.506;-2.750;2024-01-15T12:42:35;2.35;;;0.30;;
75620;SDS011;64574;48.506;-2.750;2024-01-15T12:45:02;1.33;;;0.40;;
75620;SDS011;64574;48.506;-2.750;2024-01-15T12:47:30;2.15;;;0.35;;
75620;SDS011;64574;48.506;-2.750;2024-01-15T12:49:57;3.03;;;0.32;;
75620;SDS011;64574;48.506;-2.750;2024-01-15T12:52:26;2.65;;;0.40;;
75620;SDS011;64574;48.506;-2.750;2024-01-15T12:54:52;2.03;;;0.50;;
75620;SDS011;64574;48.506;-2.750;2024-01-15T12:57:18;2.65;;;0.75;;
75620;SDS011;64574;48.506;-2.750;2024-01-15T12:59:44;1.10;;;0.45;;
75620;SDS011;64574;48.506;-2.750;2024-01-15T13:02:10;0.98;;;0.30;;
75620;SDS011;64574;48.506;-2.750;2024-01-15T13:04:39;3.25;;;0.63;;
75620;SDS011;64574;48.506;-2.750;2024-01-15T13:07:05;2.13;;;0.47;;
75620;SDS011;64574;48.506;-2.750;2024-01-15T13:09:32;2.42;;;0.38;;
75620;SDS011;64574;48.506;-2.750;2024-01-15T13:11:58;0.45;;;0.15;;
75620;SDS011;64574;48.506;-2.750;2024-01-15T13:14:24;1.23;;;0.43;;
75620;SDS011;64574;48.506;-2.750;2024-01-15T13:16:49;0.57;;;0.40;;
75620;SDS011;64574;48.506;-2.750;2024-01-15T13:19:15;1.45;;;0.40;;
75620;SDS011;64574;48.506;-2.750;2024-01-15T13:21:40;1.10;;;0.50;;
75620;SDS011;64574;48.506;-2.750;2024-01-15T13:24:07;1.92;;;0.47;;
75620;SDS011;64574;48.506;-2.750;2024-01-15T13:26:35;1.55;;;0.40;;
75620;SDS011;64574;48.506;-2.750;2024-01-15T13:29:02;1.05;;;0.50;;
75620;SDS011;64574;48.506;-2.750;2024-01-15T13:31:31;0.98;;;0.40;;
75620;SDS011;64574;48.506;-2.750;2024-01-15T13:33:57;4.90;;;0.73;;
75620;SDS011;64574;48.506;-2.750;2024-01-15T13:36:24;1.08;;;0.40;;
75620;SDS011;64574;48.506;-2.750;2024-01-15T13:38:53;3.10;;;0.50;;
75620;SDS011;64574;48.506;-2.750;2024-01-15T13:41:19;1.92;;;0.50;;
75620;SDS011;64574;48.506;-2.750;2024-01-15T13:43:52;4.28;;;0.55;;
75620;SDS011;64574;48.506;-2.750;2024-01-15T13:46:19;9.32;;;1.02;;
75620;SDS011;64574;48.506;-2.750;2024-01-15T13:48:46;1.20;;;0.55;;
75620;SDS011;64574;48.506;-2.750;2024-01-15T13:51:12;1.65;;;0.52;;
75620;SDS011;64574;48.506;-2.750;2024-01-15T13:53:38;3.17;;;2.05;;
75620;SDS011;64574;48.506;-2.750;2024-01-15T13:56:05;0.85;;;0.70;;
75620;SDS011;64574;48.506;-2.750;2024-01-15T13:58:31;2.60;;;0.45;;
75620;SDS011;64574;48.506;-2.750;2024-01-15T14:00:58;3.17;;;0.60;;
75620;SDS011;64574;48.506;-2.750;2024-01-15T14:03:24;2.95;;;0.60;;
75620;SDS011;64574;48.506;-2.750;2024-01-15T14:05:50;2.45;;;0.38;;
75620;SDS011;64574;48.506;-2.750;2024-01-15T14:08:16;2.30;;;0.50;;
75620;SDS011;64574;48.506;-2.750;2024-01-15T14:10:42;1.85;;;0.50;;
75620;SDS011;64574;48.506;-2.750;2024-01-15T14:13:07;2.03;;;0.63;;
75620;SDS011;64574;48.506;-2.750;2024-01-15T14:15:33;3.55;;;0.70;;
75620;SDS011;64574;48.506;-2.750;2024-01-15T14:17:59;2.55;;;0.40;;
75620;SDS011;64574;48.506;-2.750;2024-01-15T14:20:26;2.13;;;0.50;;
75620;SDS011;64574;48.506;-2.750;2024-01-15T14:22:52;3.08;;;0.60;;
75620;SDS011;64574;48.506;-2.750;2024-01-15T14:25:19;4.70;;;0.55;;
75620;SDS011;64574;48.506;-2.750;2024-01-15T14:27:45;2.78;;;0.63;;
75620;SDS011;64574;48.506;-2.750;2024-01-15T14:30:11;2.33;;;0.40;;
75620;SDS011;64574;48.506;-2.750;2024-01-15T14:32:38;6.20;;;0.60;;
75620;SDS011;64574;48.506;-2.750;2024-01-15T14:35:05;3.20;;;0.85;;
75620;SDS011;64574;48.506;-2.750;2024-01-15T14:37:33;2.47;;;0.60;;